Time;durP1;ratioP1;P1;durP2;ratioP2;P2;SDS_P1;SDS_P2;PMS_P1;PMS_P2;Temp;Humidity;BMP_temperature;BMP_pressure;BME280_temperature;BME280_humidity;BME280_pressure;Samples;Min_cycle;Max_cycle;Signal;HPM_P1;HPM_P2
2023/02/16 00:00:44;;;;;;;139.05;49.92;;;3.20;99.90;;;;;;5052678;28;20419;-53
2023/02/16 00:03:16;;;;;;;133.27;50.22;;;3.20;99.90;;;;;;5051469;28;20079;-53
2023/02/16 00:05:41;;;;;;;140.98;51.30;;;3.20;99.90;;;;;;5051920;28;20029;-53
2023/02/16 00:08:07;;;;;;;141.88;50.95;;;3.10;99.90;;;;;;5052302;28;20091;-53
2023/02/16 00:10:35;;;;;;;129.00;51.15;;;3.10;99.90;;;;;;5052534;28;20018;-52
2023/02/16 00:15:46;;;;;;;145.27;49.50;;;3.10;99.90;;;;;;5052556;28;20101;-52
2023/02/16 00:18:16;;;;;;;168.25;49.83;;;3.10;99.90;;;;;;5052549;28;20036;-55
2023/02/16 00:20:41;;;;;;;153.27;50.97;;;3.10;99.90;;;;;;5051338;28;20032;-55
2023/02/16 00:23:15;;;;;;;135.32;50.30;;;3.00;99.90;;;;;;5069251;28;20375;-55
2023/02/16 00:25:41;;;;;;;133.38;51.33;;;3.00;99.90;;;;;;5068984;28;20094;-56
2023/02/16 00:28:14;;;;;;;136.55;50.60;;;3.00;99.90;;;;;;5069095;28;20024;-54
2023/02/16 00:30:40;;;;;;;128.93;47.90;;;3.00;99.90;;;;;;5068950;28;20341;-52
2023/02/16 00:33:17;;;;;;;126.30;48.63;;;3.20;99.90;;;;;;5068742;28;20078;-53
2023/02/16 00:35:43;;;;;;;116.60;44.55;;;3.20;99.90;;;;;;5068541;28;20021;-52
2023/02/16 00:38:10;;;;;;;127.05;47.75;;;3.20;99.90;;;;;;5067417;28;20514;-49
2023/02/16 00:40:36;;;;;;;141.15;47.88;;;3.20;99.90;;;;;;5068399;28;20025;-50
2023/02/16 00:43:01;;;;;;;122.97;45.58;;;3.20;99.90;;;;;;5066823;28;20051;-51
2023/02/16 00:45:28;;;;;;;125.43;49.90;;;3.20;99.90;;;;;;5068313;28;20024;-51
2023/02/16 00:47:53;;;;;;;131.38;46.67;;;3.20;99.90;;;;;;5068582;28;20017;-52
2023/02/16 00:50:30;;;;;;;132.80;47.42;;;3.20;99.90;;;;;;5067159;28;20028;-54
2023/02/16 00:52:57;;;;;;;128.38;46.45;;;3.20;99.90;;;;;;5068934;28;20381;-54
2023/02/16 00:55:32;;;;;;;155.98;47.45;;;3.10;99.90;;;;;;5067951;28;20021;-54
2023/02/16 00:58:05;;;;;;;136.13;46.63;;;3.20;99.90;;;;;;5068348;28;20104;-53
2023/02/16 01:00:36;;;;;;;133.13;44.25;;;3.10;99.90;;;;;;5066772;28;20036;-54
2023/02/16 01:03:07;;;;;;;119.78;45.22;;;3.10;99.90;;;;;;5068211;28;20052;-53
2023/02/16 01:05:33;;;;;;;113.25;45.25;;;3.00;99.90;;;;;;5067541;28;20082;-54
2023/02/16 01:13:28;;;;;;;121.07;44.22;;;2.80;99.90;;;;;;5067451;28;20086;-51
2023/02/16 01:15:54;;;;;;;150.20;45.05;;;2.90;99.90;;;;;;5067578;28;20154;-53
2023/02/16 01:18:20;;;;;;;128.73;42.03;;;2.90;99.90;;;;;;5066820;28;20029;-54
2023/02/16 01:20:46;;;;;;;105.25;40.03;;;2.80;99.90;;;;;;5066286;28;20077;-55
2023/02/16 01:23:12;;;;;;;104.28;39.78;;;2.80;99.90;;;;;;5067359;28;20032;-52
2023/02/16 01:25:38;;;;;;;102.05;43.53;;;2.70;99.90;;;;;;5067444;28;20515;-54
2023/02/16 01:28:20;;;;;;;107.72;43.70;;;2.80;99.90;;;;;;5066124;28;20024;-57
2023/02/16 01:30:46;;;;;;;100.07;40.72;;;2.90;99.90;;;;;;5067333;28;20444;-56
2023/02/16 01:33:12;;;;;;;126.57;44.50;;;2.80;99.90;;;;;;5061849;28;20450;-53
2023/02/16 01:35:37;;;;;;;131.55;44.10;;;2.80;99.90;;;;;;5054039;28;20029;-55
2023/02/16 01:38:03;;;;;;;123.60;43.95;;;2.90;99.90;;;;;;5052960;28;20514;-53
2023/02/16 01:40:31;;;;;;;120.20;45.55;;;2.90;99.90;;;;;;5054008;28;20033;-53
2023/02/16 01:43:19;;;;;;;115.10;44.15;;;2.90;99.90;;;;;;5053936;28;20036;-55
2023/02/16 01:45:50;;;;;;;107.10;42.83;;;2.90;99.90;;;;;;5052497;28;20021;-55
2023/02/16 01:48:28;;;;;;;117.18;43.70;;;2.80;99.90;;;;;;5052675;28;20021;-56
2023/02/16 01:51:32;;;;;;;97.82;40.35;;;2.80;99.90;;;;;;5053824;28;20480;-52
2023/02/16 01:54:13;;;;;;;90.68;39.72;;;2.70;99.90;;;;;;5053730;28;20033;-53
2023/02/16 01:56:44;;;;;;;97.28;39.40;;;2.70;99.90;;;;;;5052268;28;20110;-56
2023/02/16 01:59:40;;;;;;;113.35;37.67;;;2.70;99.90;;;;;;5053774;28;20021;-52
2023/02/16 02:02:28;;;;;;;104.75;40.63;;;2.80;99.90;;;;;;5053612;28;20072;-56
2023/02/16 02:08:09;;;;;;;97.25;39.70;;;2.70;99.90;;;;;;5053814;28;20023;-57
2023/02/16 02:10:34;;;;;;;138.00;40.63;;;2.70;99.90;;;;;;5053586;28;20033;-56
2023/02/16 02:13:31;;;;;;;114.15;41.70;;;2.60;99.90;;;;;;5053453;28;20113;-56
2023/02/16 02:15:58;;;;;;;96.00;39.60;;;2.60;99.90;;;;;;5051920;28;20025;-54
2023/02/16 02:18:24;;;;;;;100.55;39.33;;;2.60;99.90;;;;;;5053150;28;20017;-53
2023/02/16 02:24:20;;;;;;;112.30;42.10;;;2.50;99.90;;;;;;5053164;28;20028;-55
2023/02/16 02:27:03;;;;;;;94.00;42.28;;;2.50;99.90;;;;;;5053089;28;20018;-51
2023/02/16 02:29:47;;;;;;;117.82;39.65;;;2.50;99.90;;;;;;5051885;28;20028;-56
2023/02/16 02:32:27;;;;;;;88.88;38.25;;;2.40;99.90;;;;;;5053378;28;20025;-53
2023/02/16 02:35:12;;;;;;;78.80;37.25;;;2.40;99.90;;;;;;5053148;28;20028;-57
2023/02/16 02:38:11;;;;;;;86.30;35.70;;;2.30;99.90;;;;;;5053378;28;20024;-51
2023/02/16 02:41:02;;;;;;;88.75;38.20;;;2.30;99.90;;;;;;5053042;28;20128;-53
2023/02/16 02:43:47;;;;;;;101.22;37.83;;;2.30;99.90;;;;;;5052883;28;20428;-53
2023/02/16 02:46:23;;;;;;;84.13;36.83;;;2.40;99.90;;;;;;5051963;28;20032;-55
2023/02/16 02:48:49;;;;;;;79.38;35.90;;;2.40;99.90;;;;;;5052814;28;20472;-56
2023/02/16 02:51:27;;;;;;;81.68;36.45;;;2.40;99.90;;;;;;5052761;28;20060;-54
2023/02/16 03:02:23;;;;;;;97.78;35.53;;;2.40;99.90;;;;;;5052230;28;20035;-52
2023/02/16 03:04:51;;;;;;;118.28;37.15;;;2.40;99.90;;;;;;5050535;28;20096;-55
2023/02/16 03:07:17;;;;;;;93.32;35.58;;;2.40;99.90;;;;;;5051071;28;20028;-49
2023/02/16 03:09:43;;;;;;;87.68;36.00;;;2.40;99.90;;;;;;5052412;28;20078;-55
2023/02/16 03:14:59;;;;;;;95.28;40.25;;;2.50;99.90;;;;;;5052371;28;20064;-54
2023/02/16 03:31:28;;;;;;;77.90;34.47;;;2.30;99.90;;;;;;5051836;28;20113;-54
2023/02/16 03:33:54;;;;;;;87.95;36.40;;;2.30;99.90;;;;;;5051944;28;20052;-52
2023/02/16 03:36:24;;;;;;;81.55;35.63;;;2.30;99.90;;;;;;5052002;28;20037;-53
2023/02/16 03:38:51;;;;;;;71.68;33.30;;;2.30;99.90;;;;;;5050533;28;20053;-53
2023/02/16 03:41:17;;;;;;;92.53;36.20;;;2.30;99.90;;;;;;5051684;28;20068;-51
2023/02/16 03:43:42;;;;;;;78.43;35.63;;;2.40;99.90;;;;;;5051772;28;20067;-51
2023/02/16 03:46:08;;;;;;;89.70;35.90;;;2.30;99.90;;;;;;5051886;28;20325;-52
2023/02/16 03:48:33;;;;;;;86.10;37.20;;;2.30;99.90;;;;;;5051654;28;20035;-51
2023/02/16 03:50:59;;;;;;;84.20;35.30;;;2.30;99.90;;;;;;5051730;28;20092;-57
2023/02/16 03:53:24;;;;;;;82.65;36.20;;;2.30;99.90;;;;;;5050046;28;20505;-54
2023/02/16 03:55:50;;;;;;;79.07;34.60;;;2.30;99.90;;;;;;5049926;28;20028;-57
2023/02/16 03:58:19;;;;;;;111.40;38.47;;;2.30;99.90;;;;;;5051565;28;20112;-58
2023/02/16 04:00:44;;;;;;;86.18;36.95;;;2.30;99.90;;;;;;5050506;28;20086;-54
2023/02/16 04:03:10;;;;;;;80.50;38.03;;;2.20;99.90;;;;;;5049826;28;20029;-51
2023/02/16 04:05:36;;;;;;;152.95;39.00;;;2.20;99.90;;;;;;5049732;28;20033;-54
2023/02/16 04:08:02;;;;;;;93.45;38.67;;;2.20;99.90;;;;;;5050496;28;20413;-53
2023/02/16 04:10:28;;;;;;;109.90;38.45;;;2.10;99.90;;;;;;5050180;28;20072;-55
2023/02/16 04:12:53;;;;;;;95.60;37.35;;;2.10;99.90;;;;;;5050121;28;20036;-53
2023/02/16 04:15:21;;;;;;;95.32;37.33;;;2.00;99.90;;;;;;5050975;28;20025;-57
2023/02/16 04:17:47;;;;;;;103.85;37.40;;;2.00;99.90;;;;;;5051362;28;20029;-54
2023/02/16 04:20:16;;;;;;;89.10;38.50;;;1.90;99.90;;;;;;5051302;28;20021;-54
2023/02/16 04:22:42;;;;;;;103.40;40.92;;;1.90;99.90;;;;;;5051049;28;20043;-54
2023/02/16 04:25:07;;;;;;;100.90;37.75;;;2.00;99.90;;;;;;5050944;28;20029;-56
2023/02/16 04:27:34;;;;;;;108.65;38.42;;;2.10;99.90;;;;;;5049878;28;20021;-55
2023/02/16 04:29:59;;;;;;;143.35;38.22;;;2.00;99.90;;;;;;5051206;28;20544;-54
2023/02/16 04:32:25;;;;;;;77.75;35.90;;;2.00;99.90;;;;;;5051164;28;20116;-53
2023/02/16 04:34:50;;;;;;;88.60;38.75;;;1.90;99.90;;;;;;5050588;28;20377;-54
2023/02/16 04:37:16;;;;;;;106.13;37.92;;;1.90;99.90;;;;;;5051465;28;20036;-54
2023/02/16 04:39:41;;;;;;;84.78;35.72;;;1.90;99.90;;;;;;5051164;28;20024;-50
2023/02/16 04:42:07;;;;;;;70.65;35.17;;;1.90;99.90;;;;;;5050961;28;20061;-56
2023/02/16 04:44:32;;;;;;;74.05;35.90;;;1.90;99.90;;;;;;5051016;28;20090;-56
2023/02/16 04:46:58;;;;;;;82.65;36.83;;;2.00;99.90;;;;;;5049552;28;20533;-53
2023/02/16 04:49:23;;;;;;;81.20;37.28;;;1.90;99.90;;;;;;5049722;28;20021;-54
2023/02/16 04:51:49;;;;;;;77.68;35.55;;;1.90;99.90;;;;;;5050918;28;20032;-56
2023/02/16 04:54:15;;;;;;;97.18;35.92;;;1.90;99.90;;;;;;5051235;28;20068;-52
2023/02/16 04:56:46;;;;;;;103.55;37.10;;;1.90;99.90;;;;;;5049751;28;20497;-51
2023/02/16 04:59:11;;;;;;;90.63;35.97;;;1.90;99.90;;;;;;5051079;28;20576;-52
2023/02/16 05:01:38;;;;;;;101.85;37.08;;;1.80;99.90;;;;;;5050676;28;20033;-51
2023/02/16 05:04:03;;;;;;;104.22;35.70;;;1.70;99.90;;;;;;5050517;28;20473;-52
2023/02/16 05:06:29;;;;;;;93.55;34.70;;;1.60;99.90;;;;;;5050986;28;20035;-51
2023/02/16 05:08:54;;;;;;;84.97;34.00;;;1.50;99.90;;;;;;5053067;28;20393;-51
2023/02/16 05:16:48;;;;;;;85.28;33.33;;;1.50;99.90;;;;;;5054724;28;20028;-56
2023/02/16 05:19:14;;;;;;;62.72;31.92;;;1.50;99.90;;;;;;5054528;28;20021;-53
2023/02/16 05:21:39;;;;;;;62.83;31.38;;;1.50;99.90;;;;;;5052829;28;20025;-53
2023/02/16 05:24:07;;;;;;;65.00;30.92;;;1.40;99.90;;;;;;5053010;28;20032;-54
2023/02/16 05:26:35;;;;;;;65.78;30.50;;;1.40;99.90;;;;;;5054182;28;20040;-56
2023/02/16 05:29:00;;;;;;;82.35;28.52;;;1.40;99.90;;;;;;5053084;28;20456;-54
2023/02/16 05:31:27;;;;;;;69.70;26.13;;;1.40;99.90;;;;;;5054221;28;20029;-51
2023/02/16 05:33:53;;;;;;;110.28;27.27;;;1.30;99.90;;;;;;5052925;28;20025;-53
2023/02/16 05:36:19;;;;;;;63.60;27.65;;;1.30;99.90;;;;;;5054008;28;20116;-57
2023/02/16 05:38:44;;;;;;;78.20;24.92;;;1.30;99.90;;;;;;5054058;28;20052;-52
2023/02/16 05:41:11;;;;;;;120.78;25.45;;;1.10;99.90;;;;;;5052752;28;20484;-52
2023/02/16 05:43:37;;;;;;;84.72;26.58;;;1.00;99.90;;;;;;5054278;28;20025;-52
2023/02/16 05:46:07;;;;;;;57.90;24.17;;;0.90;99.90;;;;;;5053562;28;20033;-51
2023/02/16 05:48:32;;;;;;;44.40;21.83;;;0.90;99.90;;;;;;5053854;28;20032;-52
2023/02/16 05:50:58;;;;;;;58.47;22.60;;;0.90;99.90;;;;;;5053842;28;20033;-51
2023/02/16 05:53:23;;;;;;;46.60;22.42;;;0.90;99.90;;;;;;5054411;28;20021;-52
2023/02/16 05:55:49;;;;;;;46.50;22.63;;;0.90;99.90;;;;;;5053841;28;20337;-56
2023/02/16 05:58:14;;;;;;;36.55;22.20;;;0.90;99.90;;;;;;5054001;28;20024;-56
2023/02/16 06:00:40;;;;;;;37.10;20.90;;;0.90;99.90;;;;;;5054420;28;20044;-53
2023/02/16 06:03:05;;;;;;;87.15;22.38;;;1.00;99.90;;;;;;5053800;28;20035;-53
2023/02/16 06:05:31;;;;;;;41.15;20.88;;;1.00;99.90;;;;;;5053517;28;20032;-53
2023/02/16 06:07:57;;;;;;;43.28;21.92;;;0.90;99.90;;;;;;5053770;28;20493;-52
2023/02/16 06:10:22;;;;;;;58.65;22.40;;;0.90;99.90;;;;;;5053907;28;20038;-54
2023/02/16 06:12:48;;;;;;;40.72;20.10;;;1.00;99.90;;;;;;5053473;28;20068;-54
2023/02/16 06:15:13;;;;;;;47.85;22.05;;;1.00;99.90;;;;;;5053667;28;20037;-51
2023/02/16 06:17:39;;;;;;;34.42;20.80;;;1.00;99.90;;;;;;5053266;28;20048;-56
2023/02/16 06:20:05;;;;;;;40.15;20.42;;;1.10;99.90;;;;;;5053561;28;20536;-56
2023/02/16 06:22:31;;;;;;;37.85;21.05;;;1.00;99.90;;;;;;5053796;28;20061;-56
2023/02/16 06:24:56;;;;;;;31.33;19.20;;;1.00;99.90;;;;;;5053355;28;20602;-53
2023/02/16 06:27:22;;;;;;;35.50;22.02;;;1.00;99.90;;;;;;5053429;28;20024;-56
2023/02/16 06:29:47;;;;;;;46.22;21.17;;;1.10;99.90;;;;;;5052495;28;20200;-55
2023/02/16 06:32:13;;;;;;;34.92;21.02;;;1.10;99.90;;;;;;5054086;28;20025;-56
2023/02/16 06:34:38;;;;;;;38.30;20.77;;;1.00;99.90;;;;;;5053814;28;20082;-53
2023/02/16 06:37:04;;;;;;;36.78;20.30;;;1.00;99.90;;;;;;5054278;28;20072;-50
2023/02/16 06:39:29;;;;;;;46.03;20.50;;;1.00;99.90;;;;;;5053853;28;20052;-57
2023/02/16 06:41:55;;;;;;;39.45;22.02;;;0.90;99.90;;;;;;5053871;28;20044;-53
2023/02/16 06:44:20;;;;;;;40.00;21.40;;;1.00;99.90;;;;;;5053969;28;20126;-52
2023/02/16 06:46:46;;;;;;;67.68;22.42;;;0.90;99.90;;;;;;5053919;28;20104;-55
2023/02/16 06:49:15;;;;;;;37.10;21.23;;;0.90;99.90;;;;;;5052206;28;20032;-54
2023/02/16 06:51:41;;;;;;;61.78;21.15;;;0.80;99.90;;;;;;5052130;28;20025;-51
2023/02/16 06:54:06;;;;;;;85.50;23.80;;;0.70;99.90;;;;;;5051925;28;20032;-57
2023/02/16 06:56:32;;;;;;;67.50;21.42;;;0.70;99.90;;;;;;5053256;28;20100;-57
2023/02/16 06:58:57;;;;;;;75.03;24.15;;;0.70;99.90;;;;;;5053212;28;20060;-51
2023/02/16 07:01:24;;;;;;;120.90;25.80;;;0.70;99.90;;;;;;5052816;28;20378;-53
2023/02/16 07:03:51;;;;;;;52.42;23.38;;;0.80;99.90;;;;;;5052405;28;20090;-51
2023/02/16 07:06:18;;;;;;;78.25;23.42;;;0.80;99.90;;;;;;5052748;28;20407;-56
2023/02/16 07:08:44;;;;;;;53.08;25.08;;;0.80;99.90;;;;;;5052748;28;20025;-56
2023/02/16 07:11:10;;;;;;;43.83;23.42;;;0.80;99.90;;;;;;5053360;28;20032;-58
2023/02/16 07:13:35;;;;;;;173.20;26.10;;;0.80;99.90;;;;;;5052861;28;20078;-56
2023/02/16 07:16:03;;;;;;;59.25;23.17;;;0.80;99.90;;;;;;5052999;28;20021;-54
2023/02/16 07:18:28;;;;;;;61.67;24.25;;;0.70;99.90;;;;;;5052841;28;20025;-56
2023/02/16 07:20:54;;;;;;;43.88;23.92;;;0.60;99.90;;;;;;5051841;28;20239;-50
2023/02/16 07:23:20;;;;;;;62.08;23.50;;;0.70;99.90;;;;;;5052456;28;20029;-54
2023/02/16 07:25:46;;;;;;;57.58;24.75;;;0.70;99.90;;;;;;5052413;28;20032;-53
2023/02/16 07:28:11;;;;;;;126.60;27.60;;;0.70;99.90;;;;;;5052665;28;20036;-57
2023/02/16 07:30:37;;;;;;;77.45;28.08;;;0.70;99.90;;;;;;5052484;28;20033;-52
2023/02/16 07:33:02;;;;;;;75.32;27.20;;;0.70;99.90;;;;;;5052666;28;20029;-55
2023/02/16 07:35:28;;;;;;;115.10;33.55;;;0.70;99.90;;;;;;5052376;28;20033;-55
2023/02/16 07:37:54;;;;;;;57.05;27.83;;;0.80;99.90;;;;;;5053352;28;20090;-56
2023/02/16 07:40:19;;;;;;;65.00;30.20;;;0.80;99.90;;;;;;5053056;28;20411;-58
2023/02/16 07:42:45;;;;;;;92.53;30.52;;;0.80;99.90;;;;;;5052410;28;20029;-51
2023/02/16 07:45:10;;;;;;;118.20;31.67;;;0.80;99.90;;;;;;5052300;28;20028;-54
2023/02/16 07:47:36;;;;;;;76.47;30.10;;;0.80;99.90;;;;;;5052292;28;20025;-55
2023/02/16 07:50:01;;;;;;;77.80;32.10;;;0.80;99.90;;;;;;5052436;28;20025;-51
2023/02/16 07:52:29;;;;;;;96.03;32.42;;;0.90;99.90;;;;;;5052207;28;20033;-55
2023/02/16 07:54:57;;;;;;;60.92;27.23;;;1.00;99.90;;;;;;5051992;28;20100;-52
2023/02/16 07:57:22;;;;;;;105.03;29.25;;;1.00;99.90;;;;;;5052062;28;20396;-52
2023/02/16 07:59:51;;;;;;;72.97;29.50;;;1.10;99.90;;;;;;5051107;28;20025;-57
2023/02/16 08:02:18;;;;;;;74.97;28.08;;;1.00;99.90;;;;;;5052500;28;20135;-52
2023/02/16 08:04:45;;;;;;;110.13;28.17;;;1.10;99.90;;;;;;5051625;28;20017;-52
2023/02/16 08:07:14;;;;;;;78.15;28.17;;;1.10;99.90;;;;;;5050880;28;20017;-55
2023/02/16 08:09:39;;;;;;;86.20;29.38;;;1.10;99.90;;;;;;5052057;28;20021;-60
2023/02/16 08:12:10;;;;;;;76.90;24.73;;;1.10;99.90;;;;;;5047957;28;20044;-59
2023/02/16 08:14:35;;;;;;;64.47;28.83;;;1.00;99.90;;;;;;5051709;28;20552;-53
2023/02/16 08:17:01;;;;;;;62.10;26.95;;;0.90;99.90;;;;;;5052024;28;20167;-59
2023/02/16 08:19:28;;;;;;;96.10;28.45;;;0.90;99.90;;;;;;5040785;28;20041;-56
2023/02/16 08:21:53;;;;;;;49.72;26.88;;;0.90;99.90;;;;;;5033092;28;20500;-59
2023/02/16 08:24:19;;;;;;;45.25;24.85;;;0.90;99.90;;;;;;5047178;28;20107;-61
2023/02/16 08:26:48;;;;;;;46.78;26.17;;;0.90;99.90;;;;;;5042929;28;20349;-60
2023/02/16 08:29:16;;;;;;;58.53;25.50;;;1.00;99.90;;;;;;5031840;28;20014;-57
2023/02/16 08:31:43;;;;;;;62.63;28.23;;;1.10;99.90;;;;;;5033499;28;20025;-56
2023/02/16 08:34:09;;;;;;;68.72;25.08;;;1.10;99.90;;;;;;5050899;28;20021;-56
2023/02/16 08:36:37;;;;;;;76.82;27.10;;;1.10;99.90;;;;;;5030820;28;20041;-54
2023/02/16 08:39:05;;;;;;;58.83;26.67;;;1.30;99.90;;;;;;5030920;28;20045;-56
2023/02/16 08:41:33;;;;;;;48.55;26.52;;;1.40;99.90;;;;;;5031381;28;20033;-57
2023/02/16 08:43:59;;;;;;;48.83;26.23;;;1.40;99.90;;;;;;5033810;28;20080;-56
2023/02/16 08:46:27;;;;;;;72.78;28.73;;;1.50;99.90;;;;;;5037049;28;20075;-54
2023/02/16 08:48:58;;;;;;;47.85;27.05;;;1.60;99.90;;;;;;5038380;28;20056;-59
2023/02/16 08:51:24;;;;;;;67.18;25.67;;;1.70;99.90;;;;;;5036416;28;20029;-55
2023/02/16 08:53:51;;;;;;;51.33;26.35;;;1.80;99.90;;;;;;5036996;28;20026;-55
2023/02/16 08:56:18;;;;;;;75.55;27.17;;;1.80;99.90;;;;;;5036267;28;20037;-56
2023/02/16 08:58:45;;;;;;;58.38;25.23;;;1.90;99.90;;;;;;5040885;28;20492;-56
2023/02/16 09:01:11;;;;;;;64.95;28.13;;;1.80;99.90;;;;;;5055770;28;20047;-58
2023/02/16 09:03:41;;;;;;;64.30;28.67;;;1.90;99.90;;;;;;5056007;28;20025;-53
2023/02/16 09:06:08;;;;;;;83.47;27.10;;;2.00;99.90;;;;;;5056396;28;20025;-53
2023/02/16 09:08:36;;;;;;;66.50;27.40;;;2.00;99.90;;;;;;5056964;28;20090;-56
2023/02/16 09:11:03;;;;;;;50.08;26.90;;;1.90;99.90;;;;;;5056927;28;20078;-55
2023/02/16 09:13:29;;;;;;;56.25;25.77;;;2.00;99.90;;;;;;5056912;28;20108;-56
2023/02/16 09:15:59;;;;;;;48.50;25.63;;;2.00;99.90;;;;;;5056771;28;20104;-56
2023/02/16 09:18:25;;;;;;;60.72;25.27;;;2.10;99.90;;;;;;5057472;28;20021;-58
2023/02/16 09:20:50;;;;;;;58.38;26.25;;;2.20;99.90;;;;;;5057482;28;20468;-52
2023/02/16 09:23:16;;;;;;;46.15;26.67;;;2.20;99.90;;;;;;5057865;28;20025;-52
2023/02/16 09:25:42;;;;;;;55.47;27.05;;;2.20;99.90;;;;;;5057957;28;20099;-58
2023/02/16 09:28:09;;;;;;;49.95;25.40;;;2.20;99.90;;;;;;5057864;28;20025;-62
2023/02/16 09:30:37;;;;;;;52.80;27.50;;;2.10;99.90;;;;;;5058039;28;20013;-58
2023/02/16 09:33:03;;;;;;;56.20;28.17;;;2.10;99.90;;;;;;5059446;28;20028;-56
2023/02/16 09:35:29;;;;;;;63.25;26.33;;;1.90;99.90;;;;;;5057314;28;20029;-55
2023/02/16 09:37:56;;;;;;;63.53;28.00;;;2.00;99.90;;;;;;5059619;28;20029;-54
2023/02/16 09:40:21;;;;;;;49.60;26.08;;;2.00;99.90;;;;;;5058680;28;20021;-54
2023/02/16 09:43:02;;;;;;;52.70;26.80;;;2.00;99.90;;;;;;5057773;28;20051;-56
2023/02/16 09:45:33;;;;;;;49.75;27.52;;;2.00;99.90;;;;;;5057627;28;20060;-53
2023/02/16 09:47:59;;;;;;;67.72;28.60;;;2.00;99.90;;;;;;5057536;28;20024;-54
2023/02/16 09:50:33;;;;;;;65.10;29.20;;;2.20;99.90;;;;;;5054363;28;20044;-57
2023/02/16 09:53:12;;;;;;;71.32;28.60;;;2.30;99.90;;;;;;5039910;28;20064;-57
2023/02/16 09:56:01;;;;;;;63.45;28.48;;;2.30;99.90;;;;;;5057201;28;20025;-53
2023/02/16 09:58:32;;;;;;;66.03;28.80;;;;;;;;;;5048870;28;20512;-55
2023/02/16 10:01:05;;;;;;;76.07;26.90;;;;;;;;;;5057082;28;20058;-54
2023/02/16 10:03:50;;;;;;;64.25;27.30;;;;;;;;;;5061215;28;20033;-55
2023/02/16 10:06:27;;;;;;;49.05;27.55;;;;;;;;;;5045639;28;20042;-56
2023/02/16 10:08:55;;;;;;;54.80;28.80;;;;;;;;;;5039635;28;20033;-55
2023/02/16 10:11:37;;;;;;;51.30;27.58;;;;;;;;;;5043764;28;20040;-56
2023/02/16 10:14:08;;;;;;;55.08;28.70;;;;;;;;;;5038708;28;20051;-55
2023/02/16 10:16:37;;;;;;;47.50;27.63;;;;;;;;;;5038495;28;20037;-60
2023/02/16 10:19:11;;;;;;;50.63;27.77;;;;;;;;;;5039599;28;20308;-53
2023/02/16 10:21:37;;;;;;;54.05;29.00;;;;;;;;;;5038195;28;20091;-57
2023/02/16 10:24:05;;;;;;;54.85;27.08;;;2.90;99.90;;;;;;5057439;28;20025;-57
2023/02/16 10:26:40;;;;;;;62.92;29.17;;;2.90;99.90;;;;;;5057985;28;20037;-53
2023/02/16 10:29:11;;;;;;;53.88;28.55;;;2.80;99.90;;;;;;5050505;28;20036;-57
2023/02/16 10:31:42;;;;;;;52.80;28.45;;;2.70;99.90;;;;;;5034147;28;20033;-56
2023/02/16 10:34:21;;;;;;;55.50;28.80;;;2.70;99.90;;;;;;5033940;28;20087;-54
2023/02/16 10:37:17;;;;;;;56.92;29.38;;;2.80;99.90;;;;;;5033810;28;20053;-53
2023/02/16 10:40:08;;;;;;;54.55;30.30;;;2.80;99.90;;;;;;5042546;28;20029;-58
2023/02/16 10:42:54;;;;;;;50.58;27.92;;;3.00;99.90;;;;;;5054263;28;20064;-55
2023/02/16 10:45:27;;;;;;;53.42;30.92;;;2.90;99.90;;;;;;5053723;28;20022;-55
2023/02/16 10:47:53;;;;;;;59.13;30.00;;;3.00;99.90;;;;;;5054063;28;20029;-56
2023/02/16 10:50:30;;;;;;;62.05;31.05;;;3.10;99.90;;;;;;5055242;28;20049;-54
2023/02/16 10:52:59;;;;;;;56.92;30.50;;;3.10;99.90;;;;;;5057613;28;20376;-55
2023/02/16 10:55:25;;;;;;;55.78;31.20;;;3.10;99.90;;;;;;5056537;28;20033;-55
2023/02/16 10:57:57;;;;;;;61.63;31.38;;;3.00;99.90;;;;;;5055078;28;20029;-53
2023/02/16 11:00:38;;;;;;;55.60;31.52;;;3.00;99.90;;;;;;5040615;28;20136;-56
2023/02/16 11:03:09;;;;;;;52.10;29.35;;;2.70;99.90;;;;;;5034537;28;20026;-55
2023/02/16 11:05:37;;;;;;;58.10;31.60;;;3.00;99.90;;;;;;5036450;28;20025;-57
2023/02/16 11:08:04;;;;;;;55.15;31.52;;;3.20;99.90;;;;;;5036681;28;20017;-58
2023/02/16 11:10:33;;;;;;;54.88;30.58;;;3.30;99.90;;;;;;5049621;28;20028;-57
2023/02/16 11:12:59;;;;;;;53.65;30.77;;;3.30;99.90;;;;;;5055763;28;20021;-58
2023/02/16 11:15:26;;;;;;;51.78;30.30;;;3.40;99.90;;;;;;5054084;28;20025;-57
2023/02/16 11:17:55;;;;;;;55.13;30.52;;;3.40;99.90;;;;;;5047940;28;21421;-56
2023/02/16 11:20:28;;;;;;;56.97;31.25;;;3.50;99.90;;;;;;5049024;28;20033;-61
2023/02/16 11:23:14;;;;;;;60.50;31.15;;;3.50;99.90;;;;;;5056752;28;20551;-52
2023/02/16 11:25:41;;;;;;;56.95;31.17;;;3.60;99.90;;;;;;5034517;28;20029;-56
2023/02/16 11:28:08;;;;;;;53.70;29.85;;;3.60;99.90;;;;;;5034791;28;20519;-58
2023/02/16 11:30:37;;;;;;;50.83;28.92;;;3.60;99.90;;;;;;5052486;28;20028;-59
2023/02/16 11:33:19;;;;;;;60.92;29.23;;;3.60;99.90;;;;;;5050123;28;20570;-56
2023/02/16 11:35:45;;;;;;;54.13;29.45;;;3.70;99.90;;;;;;5052596;28;20041;-56
2023/02/16 11:38:29;;;;;;;58.10;30.50;;;3.70;99.90;;;;;;5040248;28;20499;-56
2023/02/16 11:40:57;;;;;;;59.65;31.15;;;3.80;99.90;;;;;;5033126;28;20033;-56
2023/02/16 11:43:27;;;;;;;55.63;31.30;;;3.80;99.90;;;;;;5040532;28;20041;-58
2023/02/16 11:46:10;;;;;;;53.13;32.17;;;3.90;99.90;;;;;;5045508;28;20025;-51
2023/02/16 11:48:36;;;;;;;52.65;29.75;;;3.80;99.90;;;;;;5032687;28;20072;-53
2023/02/16 11:51:10;;;;;;;58.05;31.67;;;3.80;99.90;;;;;;5036189;28;20049;-54
2023/02/16 11:53:41;;;;;;;55.20;31.90;;;3.80;99.90;;;;;;5032745;23;20132;-48
2023/02/16 11:56:26;;;;;;;60.20;32.30;;;3.90;99.90;;;;;;5012359;28;20033;-46
2023/02/16 11:59:20;;;;;;;58.25;33.42;;;4.00;99.90;;;;;;5012181;28;20349;-48
2023/02/16 12:01:54;;;;;;;57.13;29.92;;;4.10;99.90;;;;;;5010691;28;20103;-48
2023/02/16 12:04:54;;;;;;;60.78;32.60;;;4.20;99.90;;;;;;5011474;28;20026;-46
2023/02/16 12:08:07;;;;;;;54.25;30.40;;;4.40;99.90;;;;;;5008448;28;20568;-45
2023/02/16 12:10:54;;;;;;;54.88;31.10;;;4.30;99.90;;;;;;4947167;28;20030;-47
2023/02/16 12:13:38;;;;;;;58.17;32.63;;;4.20;99.90;;;;;;4970848;28;20090;-47
2023/02/16 12:16:53;;;;;;;57.40;31.88;;;4.10;99.90;;;;;;4986799;28;20081;-48
2023/02/16 12:19:40;;;;;;;55.45;31.15;;;4.10;99.90;;;;;;4989842;28;20030;-46
2023/02/16 12:22:38;;;;;;;60.63;32.08;;;4.20;99.90;;;;;;4992361;28;20441;-47
2023/02/16 12:25:35;;;;;;;59.38;31.02;;;4.30;99.90;;;;;;4991634;28;20105;-50
2023/02/16 12:28:17;;;;;;;56.63;31.33;;;4.50;99.90;;;;;;4972391;28;20042;-50
2023/02/16 12:30:59;;;;;;;53.70;30.42;;;4.60;99.90;;;;;;4979442;28;20022;-50
2023/02/16 12:33:36;;;;;;;54.15;31.15;;;4.60;99.90;;;;;;4991524;28;20030;-46
2023/02/16 12:36:31;;;;;;;51.17;30.67;;;4.70;99.90;;;;;;4991874;28;20060;-48
2023/02/16 12:39:12;;;;;;;53.80;32.55;;;4.90;99.90;;;;;;5001454;28;20032;-47
2023/02/16 12:41:59;;;;;;;56.72;31.33;;;4.90;99.90;;;;;;5011216;28;20112;-48
2023/02/16 12:44:45;;;;;;;61.80;34.13;;;5.00;99.90;;;;;;5010028;28;20454;-44
2023/02/16 12:47:20;;;;;;;54.33;30.55;;;4.80;99.90;;;;;;5011731;28;20052;-49
2023/02/16 12:49:48;;;;;;;54.55;31.60;;;4.80;99.90;;;;;;4998030;28;20545;-48
2023/02/16 12:52:29;;;;;;;56.63;32.92;;;4.70;99.90;;;;;;4990875;28;20034;-48
2023/02/16 12:55:14;;;;;;;57.25;33.03;;;4.80;99.90;;;;;;4990386;28;20462;-49
2023/02/16 12:57:48;;;;;;;61.67;33.95;;;4.90;99.90;;;;;;4992186;28;20030;-52
2023/02/16 13:00:20;;;;;;;61.30;34.22;;;5.00;99.90;;;;;;4992056;28;20081;-52
2023/02/16 13:02:55;;;;;;;59.22;33.15;;;5.00;99.90;;;;;;4991592;28;20045;-46
2023/02/16 13:05:30;;;;;;;57.92;31.90;;;5.00;99.90;;;;;;4991491;28;20034;-48
2023/02/16 13:08:19;;;;;;;59.95;34.30;;;5.00;99.90;;;;;;4991492;28;20045;-49
2023/02/16 13:11:06;;;;;;;56.17;32.83;;;5.00;99.90;;;;;;4991642;28;20022;-46
2023/02/16 13:13:34;;;;;;;65.10;34.42;;;5.00;99.90;;;;;;4988878;28;20508;-49
2023/02/16 13:16:16;;;;;;;58.97;33.10;;;5.00;99.90;;;;;;4991457;28;20034;-48
2023/02/16 13:18:43;;;;;;;58.50;33.30;;;5.00;99.90;;;;;;4995311;28;20025;-45
2023/02/16 13:21:30;;;;;;;63.28;34.85;;;4.90;99.90;;;;;;5011046;28;20500;-49
2023/02/16 13:24:14;;;;;;;68.60;35.15;;;4.90;99.90;;;;;;4997907;28;20033;-48
2023/02/16 13:27:03;;;;;;;65.72;35.13;;;4.80;99.90;;;;;;4991376;28;20030;-48
2023/02/16 13:29:43;;;;;;;59.50;33.63;;;4.70;99.90;;;;;;4992056;28;20113;-48
2023/02/16 13:32:48;;;;;;;64.13;34.40;;;4.70;99.90;;;;;;4993902;28;20025;-46
2023/02/16 13:35:31;;;;;;;69.03;36.80;;;4.80;99.90;;;;;;4999024;28;20022;-47
2023/02/16 13:38:28;;;;;;;69.57;37.22;;;4.80;99.90;;;;;;5014384;28;20022;-46
2023/02/16 13:41:32;;;;;;;67.45;36.80;;;4.60;99.90;;;;;;4991079;28;20062;-46
2023/02/16 13:44:14;;;;;;;67.95;34.90;;;4.70;99.90;;;;;;4994573;28;20045;-48